Maxeys, Georgia
Current Conditions -  °F | °C
As of 6:15 AM on Sunday 21 Dec 2014 (Local Time) from K3J7 Reporting Station
Haze Haze  
Wind Chill: 41°   Ceiling: 300
Heat Index: 41°   Visibility: 2mi
Dew Point: 41°   Wind: 0mph
Humidity: 100%   Direction: NA
Pressure: 30.17"   Gusts: NA
Location:  33.75°N, 83.17°W
Report Text: K3J7 211115Z AUTO 00000KT 2SM BR OVC003 05/05 A3017 RMK AO2
Loading
Personal Weather Stations






























Interactive Weather Map New forecast layout! Learn more

10-Day Weather Forecast

Advertisements
Track Severe Weather on mobile